Georgetown, TX (78626)

3:08 PM CDT on March 23, 2017 (GMT -0500)
Longhorn Weather Center | | Change Station
Active Advisory: Wind Advisory

Elev 715 ft 30.63 °N, 97.66 °W | Updated 4 seconds ago

Clear
Clear
86.0 °F
Feels Like 85 °F
N
7.8
Wind Variable Wind from WNW
Gusts 244.5 mph

Today
High -- | Low -- °F
--% Chance of Precip.
Yesterday
High -- | Low -- °F
Precip. -- in
Pressure 30.03 in
Visibility 10.0 miles
Clouds Clear
Heat Index 85 °F
Dew Point 58 °F
Humidity 39%
Rainfall 7.56 in
Snow Depth Not available.
7:30 AM 7:44 PM
Waning Crescent, 21% visible
METAR KGTU 231850Z 17015G28KT 10SM CLR 28/12 A3003
Pressure 30.03 in
Visibility 10.0 miles
Clouds Clear
Heat Index 85 °F
Dew Point 58 °F
Humidity 39%
Rainfall 7.56 in
Snow Depth Not available.
7:30 AM 7:44 PM
Waning Crescent, 21% visible
METAR KGTU 231850Z 17015G28KT 10SM CLR 28/12 A3003

Get Your Daily Forecast Email!

Thanks for signing up!

Be on the lookout for a verification email in your inbox.

You'll start receiving severe weather alerts in your inbox..

×

10-Day Weather Forecast

Almanac

Astronomy

Mar. 23, 2017 Rise Set
Actual Time
Civil Twilight
Nautical Twilight
Astronomical Twilight
Moon
Length of Visible Light
Length of Day
Tomorrow will be .
, % of the Moon is Illuminated

Today's Extremes

State Highs State Lows

Community

WunderPhotos

Upload Photos

1,962,540 photos uploaded!

WunderBlog® & News

Nearby

Air Quality

  Air Quality AQ Index Pollutant
Not available.

Snow Depth

Station Depth Elevation

Earthquake Activity

City Distance Mag. Time & Date
Minimum magnitude displayed is 2.5.

Earthquake Activity

City Distance Mag. Time & Date
Minimum magnitude displayed is 2.5.

Coastal Water Temperatures

Place Temperature

Stations

Nearby Weather Stations

Station Location Temp. Windchill Dew Point Humidity Wind Precip. Elev Updated Type
                   

Watches & Warnings

Wind Advisory
Issued: 1:18 PM CDT Mar. 23, 2017 – National Weather Service

... Wind Advisory remains in effect until midnight CDT tonight...

* timing... continuing this afternoon through midnight tonight.

* Winds... southeast winds of 20 to 35 mph with gusts to 45 mph.

* Impacts... loose items will be blown around, small tree
branches could be broken, and driving can be difficult
especially in high profile vehicles.

Precautionary/preparedness actions...

A Wind Advisory means that sustained winds of 26 to 39 mph are
expected. Winds this strong can make driving difficult...
especially for high profile vehicles. Use extra caution.